sensor_id;sensor_type;location;lat;lon;timestamp;P1;durP1;ratioP1;P2;durP2;ratioP2
15814;SDS011;8008;50.024;8.172;2022-09-16T03:00:45;3.25;;;1.30;;
15814;SDS011;8008;50.024;8.172;2022-09-16T03:03:16;4.10;;;1.65;;
15814;SDS011;8008;50.024;8.172;2022-09-16T03:08:39;3.67;;;1.48;;
15814;SDS011;8008;50.024;8.172;2022-09-16T03:11:15;4.68;;;1.38;;
15814;SDS011;8008;50.024;8.172;2022-09-16T03:13:58;4.20;;;1.60;;
15814;SDS011;8008;50.024;8.172;2022-09-16T03:17:42;5.80;;;1.60;;
15814;SDS011;8008;50.024;8.172;2022-09-16T03:20:35;2.80;;;1.40;;
15814;SDS011;8008;50.024;8.172;2022-09-16T03:23:11;6.00;;;1.40;;
15814;SDS011;8008;50.024;8.172;2022-09-16T03:25:48;5.25;;;1.63;;
15814;SDS011;8008;50.024;8.172;2022-09-16T03:28:23;3.40;;;1.50;;
15814;SDS011;8008;50.024;8.172;2022-09-16T03:30:58;3.30;;;1.33;;
15814;SDS011;8008;50.024;8.172;2022-09-16T03:33:34;5.03;;;1.63;;
15814;SDS011;8008;50.024;8.172;2022-09-16T03:36:07;6.20;;;1.77;;
15814;SDS011;8008;50.024;8.172;2022-09-16T03:38:40;3.72;;;1.65;;
15814;SDS011;8008;50.024;8.172;2022-09-16T03:41:09;3.33;;;1.65;;
15814;SDS011;8008;50.024;8.172;2022-09-16T03:43:37;3.13;;;1.60;;
15814;SDS011;8008;50.024;8.172;2022-09-16T03:46:07;2.28;;;1.40;;
15814;SDS011;8008;50.024;8.172;2022-09-16T03:48:38;3.85;;;1.52;;
15814;SDS011;8008;50.024;8.172;2022-09-16T03:51:07;2.35;;;1.60;;
15814;SDS011;8008;50.024;8.172;2022-09-16T03:53:35;2.13;;;1.52;;
15814;SDS011;8008;50.024;8.172;2022-09-16T03:56:02;7.43;;;1.70;;
15814;SDS011;8008;50.024;8.172;2022-09-16T03:58:30;7.93;;;1.88;;
15814;SDS011;8008;50.024;8.172;2022-09-16T04:00:58;3.45;;;1.60;;
15814;SDS011;8008;50.024;8.172;2022-09-16T04:03:26;4.97;;;1.80;;
15814;SDS011;8008;50.024;8.172;2022-09-16T04:06:00;6.63;;;1.80;;
15814;SDS011;8008;50.024;8.172;2022-09-16T04:08:27;4.05;;;1.45;;
15814;SDS011;8008;50.024;8.172;2022-09-16T04:10:56;4.47;;;1.60;;
15814;SDS011;8008;50.024;8.172;2022-09-16T04:13:25;2.58;;;1.52;;
15814;SDS011;8008;50.024;8.172;2022-09-16T04:15:55;4.50;;;1.58;;
15814;SDS011;8008;50.024;8.172;2022-09-16T04:18:24;2.65;;;1.70;;
15814;SDS011;8008;50.024;8.172;2022-09-16T04:20:54;3.35;;;2.15;;
15814;SDS011;8008;50.024;8.172;2022-09-16T04:23:24;1.75;;;1.50;;
15814;SDS011;8008;50.024;8.172;2022-09-16T04:25:52;8.45;;;2.10;;
15814;SDS011;8008;50.024;8.172;2022-09-16T04:28:21;7.32;;;1.80;;
15814;SDS011;8008;50.024;8.172;2022-09-16T04:30:49;2.70;;;1.55;;
15814;SDS011;8008;50.024;8.172;2022-09-16T04:33:18;3.03;;;1.60;;
15814;SDS011;8008;50.024;8.172;2022-09-16T04:35:47;3.17;;;1.70;;
15814;SDS011;8008;50.024;8.172;2022-09-16T04:38:14;8.30;;;1.80;;
15814;SDS011;8008;50.024;8.172;2022-09-16T04:40:44;2.50;;;1.60;;
15814;SDS011;8008;50.024;8.172;2022-09-16T04:43:12;3.08;;;1.55;;
15814;SDS011;8008;50.024;8.172;2022-09-16T04:45:40;2.40;;;1.52;;
15814;SDS011;8008;50.024;8.172;2022-09-16T04:48:08;3.25;;;1.58;;
15814;SDS011;8008;50.024;8.172;2022-09-16T04:50:36;3.40;;;1.40;;
15814;SDS011;8008;50.024;8.172;2022-09-16T04:53:04;4.25;;;1.90;;
15814;SDS011;8008;50.024;8.172;2022-09-16T04:55:31;7.68;;;1.90;;
15814;SDS011;8008;50.024;8.172;2022-09-16T04:58:01;4.35;;;1.73;;
15814;SDS011;8008;50.024;8.172;2022-09-16T05:00:29;4.90;;;1.75;;
15814;SDS011;8008;50.024;8.172;2022-09-16T05:02:57;4.72;;;1.80;;
15814;SDS011;8008;50.024;8.172;2022-09-16T05:05:25;6.13;;;1.60;;
15814;SDS011;8008;50.024;8.172;2022-09-16T05:07:53;6.75;;;1.60;;
15814;SDS011;8008;50.024;8.172;2022-09-16T05:10:20;4.85;;;1.75;;
15814;SDS011;8008;50.024;8.172;2022-09-16T05:12:49;4.68;;;1.80;;
15814;SDS011;8008;50.024;8.172;2022-09-16T05:15:19;4.30;;;1.67;;
15814;SDS011;8008;50.024;8.172;2022-09-16T05:17:47;5.88;;;1.83;;
15814;SDS011;8008;50.024;8.172;2022-09-16T05:20:17;4.80;;;1.92;;
15814;SDS011;8008;50.024;8.172;2022-09-16T05:22:47;5.53;;;1.98;;
15814;SDS011;8008;50.024;8.172;2022-09-16T05:25:16;3.75;;;2.08;;
15814;SDS011;8008;50.024;8.172;2022-09-16T05:27:44;6.63;;;2.00;;
15814;SDS011;8008;50.024;8.172;2022-09-16T05:30:12;5.10;;;1.90;;
15814;SDS011;8008;50.024;8.172;2022-09-16T05:32:43;3.60;;;1.92;;
15814;SDS011;8008;50.024;8.172;2022-09-16T05:35:11;7.13;;;1.90;;
15814;SDS011;8008;50.024;8.172;2022-09-16T05:37:39;3.55;;;2.00;;
15814;SDS011;8008;50.024;8.172;2022-09-16T05:40:07;3.20;;;1.90;;
15814;SDS011;8008;50.024;8.172;2022-09-16T05:42:35;3.83;;;1.92;;
15814;SDS011;8008;50.024;8.172;2022-09-16T05:45:03;3.63;;;1.83;;
15814;SDS011;8008;50.024;8.172;2022-09-16T05:47:32;5.32;;;1.90;;
15814;SDS011;8008;50.024;8.172;2022-09-16T05:50:01;6.85;;;1.83;;
15814;SDS011;8008;50.024;8.172;2022-09-16T05:52:30;3.50;;;1.80;;
15814;SDS011;8008;50.024;8.172;2022-09-16T05:54:58;4.07;;;1.70;;
15814;SDS011;8008;50.024;8.172;2022-09-16T05:57:26;4.03;;;1.70;;
15814;SDS011;8008;50.024;8.172;2022-09-16T05:59:54;5.05;;;1.70;;
15814;SDS011;8008;50.024;8.172;2022-09-16T06:02:21;6.45;;;1.80;;
15814;SDS011;8008;50.024;8.172;2022-09-16T06:04:50;5.82;;;1.65;;
15814;SDS011;8008;50.024;8.172;2022-09-16T06:07:19;3.13;;;1.80;;
15814;SDS011;8008;50.024;8.172;2022-09-16T06:09:47;5.75;;;2.00;;
15814;SDS011;8008;50.024;8.172;2022-09-16T06:12:15;3.25;;;1.60;;
15814;SDS011;8008;50.024;8.172;2022-09-16T06:14:43;3.20;;;1.55;;
15814;SDS011;8008;50.024;8.172;2022-09-16T06:17:11;5.55;;;1.75;;
15814;SDS011;8008;50.024;8.172;2022-09-16T06:19:39;3.55;;;1.75;;
15814;SDS011;8008;50.024;8.172;2022-09-16T06:22:06;6.63;;;1.80;;
15814;SDS011;8008;50.024;8.172;2022-09-16T06:24:36;3.90;;;1.45;;
15814;SDS011;8008;50.024;8.172;2022-09-16T06:27:03;2.38;;;1.40;;
15814;SDS011;8008;50.024;8.172;2022-09-16T06:29:32;2.60;;;1.30;;
15814;SDS011;8008;50.024;8.172;2022-09-16T06:32:00;6.75;;;1.63;;
15814;SDS011;8008;50.024;8.172;2022-09-16T06:34:28;5.40;;;1.67;;
15814;SDS011;8008;50.024;8.172;2022-09-16T06:36:56;6.68;;;1.60;;
15814;SDS011;8008;50.024;8.172;2022-09-16T06:39:24;4.22;;;1.50;;
15814;SDS011;8008;50.024;8.172;2022-09-16T06:41:53;4.95;;;1.60;;
15814;SDS011;8008;50.024;8.172;2022-09-16T06:44:34;4.07;;;1.48;;
15814;SDS011;8008;50.024;8.172;2022-09-16T06:47:02;4.95;;;1.70;;
15814;SDS011;8008;50.024;8.172;2022-09-16T06:49:30;6.13;;;1.50;;
15814;SDS011;8008;50.024;8.172;2022-09-16T06:51:58;7.20;;;1.50;;
15814;SDS011;8008;50.024;8.172;2022-09-16T06:54:26;4.90;;;1.30;;
15814;SDS011;8008;50.024;8.172;2022-09-16T06:56:55;4.13;;;1.20;;
15814;SDS011;8008;50.024;8.172;2022-09-16T06:59:23;3.05;;;1.27;;
15814;SDS011;8008;50.024;8.172;2022-09-16T07:01:51;4.97;;;1.45;;
15814;SDS011;8008;50.024;8.172;2022-09-16T07:04:19;8.85;;;1.60;;
15814;SDS011;8008;50.024;8.172;2022-09-16T07:06:48;4.22;;;1.30;;
15814;SDS011;8008;50.024;8.172;2022-09-16T07:09:35;2.65;;;0.98;;
15814;SDS011;8008;50.024;8.172;2022-09-16T07:12:04;4.55;;;1.30;;
15814;SDS011;8008;50.024;8.172;2022-09-16T07:14:32;4.07;;;1.40;;
15814;SDS011;8008;50.024;8.172;2022-09-16T07:17:00;4.88;;;1.40;;
15814;SDS011;8008;50.024;8.172;2022-09-16T07:19:28;3.90;;;1.33;;
15814;SDS011;8008;50.024;8.172;2022-09-16T07:21:56;4.95;;;1.58;;
15814;SDS011;8008;50.024;8.172;2022-09-16T07:24:24;2.38;;;1.23;;
15814;SDS011;8008;50.024;8.172;2022-09-16T07:26:52;3.35;;;1.20;;
15814;SDS011;8008;50.024;8.172;2022-09-16T07:29:21;1.50;;;0.77;;
15814;SDS011;8008;50.024;8.172;2022-09-16T07:31:49;2.67;;;1.27;;
15814;SDS011;8008;50.024;8.172;2022-09-16T07:34:17;4.95;;;1.40;;
15814;SDS011;8008;50.024;8.172;2022-09-16T07:36:46;4.97;;;1.30;;
15814;SDS011;8008;50.024;8.172;2022-09-16T07:39:16;4.60;;;1.10;;
15814;SDS011;8008;50.024;8.172;2022-09-16T07:41:45;4.25;;;1.38;;
15814;SDS011;8008;50.024;8.172;2022-09-16T07:44:15;7.63;;;1.20;;
15814;SDS011;8008;50.024;8.172;2022-09-16T07:46:47;5.72;;;1.20;;
15814;SDS011;8008;50.024;8.172;2022-09-16T07:49:16;3.28;;;1.00;;
15814;SDS011;8008;50.024;8.172;2022-09-16T07:51:44;3.15;;;1.30;;
15814;SDS011;8008;50.024;8.172;2022-09-16T07:54:13;3.78;;;1.02;;
15814;SDS011;8008;50.024;8.172;2022-09-16T07:56:42;4.97;;;0.90;;
15814;SDS011;8008;50.024;8.172;2022-09-16T07:59:11;7.65;;;1.00;;
15814;SDS011;8008;50.024;8.172;2022-09-16T08:01:44;2.53;;;1.00;;
15814;SDS011;8008;50.024;8.172;2022-09-16T08:04:14;2.75;;;0.98;;
15814;SDS011;8008;50.024;8.172;2022-09-16T08:06:42;4.43;;;1.13;;
15814;SDS011;8008;50.024;8.172;2022-09-16T08:09:10;3.53;;;1.02;;
15814;SDS011;8008;50.024;8.172;2022-09-16T08:12:01;2.65;;;1.00;;
15814;SDS011;8008;50.024;8.172;2022-09-16T08:14:30;6.30;;;1.63;;
15814;SDS011;8008;50.024;8.172;2022-09-16T08:16:58;3.85;;;1.02;;
15814;SDS011;8008;50.024;8.172;2022-09-16T08:19:28;1.83;;;0.95;;
15814;SDS011;8008;50.024;8.172;2022-09-16T08:21:56;2.55;;;1.17;;
15814;SDS011;8008;50.024;8.172;2022-09-16T08:24:24;4.53;;;1.15;;
15814;SDS011;8008;50.024;8.172;2022-09-16T08:26:52;3.75;;;1.02;;
15814;SDS011;8008;50.024;8.172;2022-09-16T08:29:20;2.03;;;1.05;;
15814;SDS011;8008;50.024;8.172;2022-09-16T08:31:50;3.20;;;1.10;;
15814;SDS011;8008;50.024;8.172;2022-09-16T08:34:18;2.88;;;1.00;;
15814;SDS011;8008;50.024;8.172;2022-09-16T08:36:47;4.72;;;1.10;;
15814;SDS011;8008;50.024;8.172;2022-09-16T08:39:16;3.53;;;1.27;;
15814;SDS011;8008;50.024;8.172;2022-09-16T08:41:48;6.60;;;1.20;;
15814;SDS011;8008;50.024;8.172;2022-09-16T08:44:37;2.75;;;1.20;;
15814;SDS011;8008;50.024;8.172;2022-09-16T08:47:21;6.18;;;1.20;;
15814;SDS011;8008;50.024;8.172;2022-09-16T08:49:57;2.55;;;0.95;;
15814;SDS011;8008;50.024;8.172;2022-09-16T08:52:28;2.97;;;1.00;;
15814;SDS011;8008;50.024;8.172;2022-09-16T08:54:59;2.58;;;1.10;;
15814;SDS011;8008;50.024;8.172;2022-09-16T08:57:29;4.25;;;1.10;;
15814;SDS011;8008;50.024;8.172;2022-09-16T09:00:04;1.52;;;0.85;;
15814;SDS011;8008;50.024;8.172;2022-09-16T09:02:37;3.13;;;1.10;;
15814;SDS011;8008;50.024;8.172;2022-09-16T09:05:14;7.43;;;1.20;;
15814;SDS011;8008;50.024;8.172;2022-09-16T09:07:49;2.22;;;0.98;;
15814;SDS011;8008;50.024;8.172;2022-09-16T09:10:27;2.42;;;0.93;;
15814;SDS011;8008;50.024;8.172;2022-09-16T09:13:02;1.42;;;0.75;;
15814;SDS011;8008;50.024;8.172;2022-09-16T09:15:39;1.92;;;0.85;;
15814;SDS011;8008;50.024;8.172;2022-09-16T09:18:14;4.22;;;1.00;;
15814;SDS011;8008;50.024;8.172;2022-09-16T09:20:50;2.92;;;0.90;;
15814;SDS011;8008;50.024;8.172;2022-09-16T09:23:30;3.08;;;1.08;;
15814;SDS011;8008;50.024;8.172;2022-09-16T09:26:08;0.82;;;0.75;;
15814;SDS011;8008;50.024;8.172;2022-09-16T09:28:46;2.05;;;0.90;;
15814;SDS011;8008;50.024;8.172;2022-09-16T09:31:28;3.30;;;0.90;;
15814;SDS011;8008;50.024;8.172;2022-09-16T09:34:05;3.53;;;0.88;;
15814;SDS011;8008;50.024;8.172;2022-09-16T09:36:47;5.50;;;1.13;;
15814;SDS011;8008;50.024;8.172;2022-09-16T09:39:40;3.08;;;0.90;;
15814;SDS011;8008;50.024;8.172;2022-09-16T09:42:17;5.00;;;1.08;;
15814;SDS011;8008;50.024;8.172;2022-09-16T09:44:51;2.05;;;0.70;;
15814;SDS011;8008;50.024;8.172;2022-09-16T09:47:30;2.15;;;0.90;;
15814;SDS011;8008;50.024;8.172;2022-09-16T09:50:04;4.13;;;1.00;;
15814;SDS011;8008;50.024;8.172;2022-09-16T09:52:42;4.13;;;0.90;;
15814;SDS011;8008;50.024;8.172;2022-09-16T09:55:16;1.60;;;0.80;;
15814;SDS011;8008;50.024;8.172;2022-09-16T09:57:52;4.15;;;0.98;;
15814;SDS011;8008;50.024;8.172;2022-09-16T10:00:30;3.50;;;0.80;;
15814;SDS011;8008;50.024;8.172;2022-09-16T10:03:03;3.05;;;1.05;;
15814;SDS011;8008;50.024;8.172;2022-09-16T10:05:33;1.98;;;0.80;;
15814;SDS011;8008;50.024;8.172;2022-09-16T10:08:03;2.40;;;0.80;;
15814;SDS011;8008;50.024;8.172;2022-09-16T10:10:44;2.60;;;0.98;;
15814;SDS011;8008;50.024;8.172;2022-09-16T10:13:15;3.55;;;1.23;;
15814;SDS011;8008;50.024;8.172;2022-09-16T10:15:45;6.63;;;1.10;;
15814;SDS011;8008;50.024;8.172;2022-09-16T10:18:21;2.55;;;0.85;;
15814;SDS011;8008;50.024;8.172;2022-09-16T10:20:57;3.67;;;0.82;;
15814;SDS011;8008;50.024;8.172;2022-09-16T10:23:29;4.57;;;1.00;;
15814;SDS011;8008;50.024;8.172;2022-09-16T10:26:06;3.13;;;1.05;;
15814;SDS011;8008;50.024;8.172;2022-09-16T10:28:51;2.38;;;0.88;;
15814;SDS011;8008;50.024;8.172;2022-09-16T10:31:21;1.25;;;0.80;;
15814;SDS011;8008;50.024;8.172;2022-09-16T10:33:50;1.83;;;0.70;;
15814;SDS011;8008;50.024;8.172;2022-09-16T10:36:19;2.15;;;0.95;;
15814;SDS011;8008;50.024;8.172;2022-09-16T10:38:52;2.47;;;0.88;;
15814;SDS011;8008;50.024;8.172;2022-09-16T10:41:32;2.85;;;0.93;;
15814;SDS011;8008;50.024;8.172;2022-09-16T10:44:11;1.08;;;0.77;;
15814;SDS011;8008;50.024;8.172;2022-09-16T10:46:48;1.88;;;0.80;;
15814;SDS011;8008;50.024;8.172;2022-09-16T10:49:19;2.78;;;0.88;;
15814;SDS011;8008;50.024;8.172;2022-09-16T10:51:52;1.15;;;0.60;;
15814;SDS011;8008;50.024;8.172;2022-09-16T10:54:22;2.83;;;0.90;;
15814;SDS011;8008;50.024;8.172;2022-09-16T10:56:54;2.10;;;0.80;;
15814;SDS011;8008;50.024;8.172;2022-09-16T10:59:22;4.15;;;0.90;;
15814;SDS011;8008;50.024;8.172;2022-09-16T11:01:53;3.13;;;0.90;;
15814;SDS011;8008;50.024;8.172;2022-09-16T11:07:28;1.60;;;0.80;;
15814;SDS011;8008;50.024;8.172;2022-09-16T11:10:04;4.05;;;1.00;;
15814;SDS011;8008;50.024;8.172;2022-09-16T11:15:36;2.28;;;0.77;;
15814;SDS011;8008;50.024;8.172;2022-09-16T11:18:15;1.00;;;0.70;;
15814;SDS011;8008;50.024;8.172;2022-09-16T11:21:07;2.63;;;0.82;;
15814;SDS011;8008;50.024;8.172;2022-09-16T11:23:51;1.08;;;0.90;;
15814;SDS011;8008;50.024;8.172;2022-09-16T11:26:34;1.15;;;0.85;;
15814;SDS011;8008;50.024;8.172;2022-09-16T11:29:15;0.93;;;0.80;;
15814;SDS011;8008;50.024;8.172;2022-09-16T11:31:55;1.48;;;0.70;;
15814;SDS011;8008;50.024;8.172;2022-09-16T11:34:37;1.50;;;0.88;;
15814;SDS011;8008;50.024;8.172;2022-09-16T11:37:13;1.40;;;0.73;;
15814;SDS011;8008;50.024;8.172;2022-09-16T11:39:55;1.83;;;0.88;;
15814;SDS011;8008;50.024;8.172;2022-09-16T11:42:34;0.60;;;0.60;;
15814;SDS011;8008;50.024;8.172;2022-09-16T11:45:17;1.35;;;0.70;;
15814;SDS011;8008;50.024;8.172;2022-09-16T11:47:56;1.17;;;0.70;;
15814;SDS011;8008;50.024;8.172;2022-09-16T11:50:38;0.77;;;0.70;;
15814;SDS011;8008;50.024;8.172;2022-09-16T11:53:21;1.27;;;0.75;;
15814;SDS011;8008;50.024;8.172;2022-09-16T11:56:14;1.13;;;0.70;;
15814;SDS011;8008;50.024;8.172;2022-09-16T11:58:45;1.38;;;0.50;;
15814;SDS011;8008;50.024;8.172;2022-09-16T12:01:21;1.05;;;0.70;;
15814;SDS011;8008;50.024;8.172;2022-09-16T12:03:57;2.15;;;0.60;;
15814;SDS011;8008;50.024;8.172;2022-09-16T12:06:29;1.17;;;0.57;;
15814;SDS011;8008;50.024;8.172;2022-09-16T12:09:05;1.98;;;0.95;;
15814;SDS011;8008;50.024;8.172;2022-09-16T12:11:41;2.63;;;0.95;;
15814;SDS011;8008;50.024;8.172;2022-09-16T12:14:12;0.70;;;0.70;;
15814;SDS011;8008;50.024;8.172;2022-09-16T12:16:46;2.10;;;0.93;;
15814;SDS011;8008;50.024;8.172;2022-09-16T12:19:18;1.88;;;1.00;;
15814;SDS011;8008;50.024;8.172;2022-09-16T12:21:50;2.50;;;0.90;;
15814;SDS011;8008;50.024;8.172;2022-09-16T12:24:25;1.70;;;0.75;;
15814;SDS011;8008;50.024;8.172;2022-09-16T12:27:01;1.45;;;0.80;;
15814;SDS011;8008;50.024;8.172;2022-09-16T12:29:35;0.85;;;0.60;;
15814;SDS011;8008;50.024;8.172;2022-09-16T12:32:10;0.90;;;0.50;;
15814;SDS011;8008;50.024;8.172;2022-09-16T12:34:43;0.80;;;0.60;;
15814;SDS011;8008;50.024;8.172;2022-09-16T12:37:21;1.50;;;0.90;;
15814;SDS011;8008;50.024;8.172;2022-09-16T12:39:56;1.15;;;0.60;;
15814;SDS011;8008;50.024;8.172;2022-09-16T12:45:35;0.95;;;0.60;;
15814;SDS011;8008;50.024;8.172;2022-09-16T12:48:36;1.40;;;0.50;;
15814;SDS011;8008;50.024;8.172;2022-09-16T12:54:39;1.52;;;0.55;;
15814;SDS011;8008;50.024;8.172;2022-09-16T12:57:37;1.50;;;0.70;;
15814;SDS011;8008;50.024;8.172;2022-09-16T13:00:14;2.08;;;0.70;;
15814;SDS011;8008;50.024;8.172;2022-09-16T13:02:47;1.63;;;0.63;;
15814;SDS011;8008;50.024;8.172;2022-09-16T13:05:21;0.60;;;0.60;;
15814;SDS011;8008;50.024;8.172;2022-09-16T13:07:59;2.17;;;0.82;;
15814;SDS011;8008;50.024;8.172;2022-09-16T13:10:30;0.57;;;0.55;;
15814;SDS011;8008;50.024;8.172;2022-09-16T13:13:23;1.67;;;0.60;;
15814;SDS011;8008;50.024;8.172;2022-09-16T13:15:58;1.02;;;0.75;;
15814;SDS011;8008;50.024;8.172;2022-09-16T13:18:38;1.00;;;0.90;;
15814;SDS011;8008;50.024;8.172;2022-09-16T13:21:20;1.40;;;0.60;;
15814;SDS011;8008;50.024;8.172;2022-09-16T13:23:52;1.98;;;0.90;;
15814;SDS011;8008;50.024;8.172;2022-09-16T13:26:36;1.98;;;0.70;;
15814;SDS011;8008;50.024;8.172;2022-09-16T13:31:57;0.43;;;0.43;;
15814;SDS011;8008;50.024;8.172;2022-09-16T13:34:25;0.65;;;0.60;;
15814;SDS011;8008;50.024;8.172;2022-09-16T13:36:54;1.40;;;0.60;;
15814;SDS011;8008;50.024;8.172;2022-09-16T13:39:28;1.40;;;0.65;;
15814;SDS011;8008;50.024;8.172;2022-09-16T13:42:08;1.00;;;0.60;;
15814;SDS011;8008;50.024;8.172;2022-09-16T13:44:40;0.93;;;0.65;;
15814;SDS011;8008;50.024;8.172;2022-09-16T13:47:13;0.77;;;0.70;;
15814;SDS011;8008;50.024;8.172;2022-09-16T13:49:46;1.50;;;0.73;;
15814;SDS011;8008;50.024;8.172;2022-09-16T13:52:19;0.63;;;0.63;;
15814;SDS011;8008;50.024;8.172;2022-09-16T13:54:51;1.92;;;0.60;;
15814;SDS011;8008;50.024;8.172;2022-09-16T13:57:45;1.20;;;0.52;;
15814;SDS011;8008;50.024;8.172;2022-09-16T14:00:26;1.98;;;0.63;;
15814;SDS011;8008;50.024;8.172;2022-09-16T14:03:06;1.70;;;0.73;;
15814;SDS011;8008;50.024;8.172;2022-09-16T14:05:46;1.35;;;0.60;;
15814;SDS011;8008;50.024;8.172;2022-09-16T14:08:28;1.67;;;0.75;;
15814;SDS011;8008;50.024;8.172;2022-09-16T14:11:06;1.83;;;0.60;;
15814;SDS011;8008;50.024;8.172;2022-09-16T14:13:38;1.83;;;0.73;;
15814;SDS011;8008;50.024;8.172;2022-09-16T14:16:11;2.17;;;0.93;;
15814;SDS011;8008;50.024;8.172;2022-09-16T14:18:49;1.02;;;0.77;;
15814;SDS011;8008;50.024;8.172;2022-09-16T14:21:22;2.13;;;0.80;;
15814;SDS011;8008;50.024;8.172;2022-09-16T14:23:52;0.65;;;0.60;;
15814;SDS011;8008;50.024;8.172;2022-09-16T14:26:25;1.23;;;0.70;;
15814;SDS011;8008;50.024;8.172;2022-09-16T14:29:00;1.25;;;0.90;;
15814;SDS011;8008;50.024;8.172;2022-09-16T14:31:30;1.25;;;0.80;;
15814;SDS011;8008;50.024;8.172;2022-09-16T14:33:59;1.15;;;0.70;;
15814;SDS011;8008;50.024;8.172;2022-09-16T14:36:32;1.83;;;0.80;;
15814;SDS011;8008;50.024;8.172;2022-09-16T14:39:08;0.98;;;0.60;;
15814;SDS011;8008;50.024;8.172;2022-09-16T14:41:41;2.58;;;0.77;;
15814;SDS011;8008;50.024;8.172;2022-09-16T14:44:14;1.25;;;0.77;;
15814;SDS011;8008;50.024;8.172;2022-09-16T14:46:49;1.02;;;0.60;;
15814;SDS011;8008;50.024;8.172;2022-09-16T14:49:34;1.75;;;0.77;;
15814;SDS011;8008;50.024;8.172;2022-09-16T14:52:04;2.08;;;0.80;;
15814;SDS011;8008;50.024;8.172;2022-09-16T14:54:46;0.63;;;0.63;;
15814;SDS011;8008;50.024;8.172;2022-09-16T14:57:15;1.98;;;0.90;;
15814;SDS011;8008;50.024;8.172;2022-09-16T14:59:45;1.17;;;0.85;;
15814;SDS011;8008;50.024;8.172;2022-09-16T15:02:14;2.50;;;0.85;;
15814;SDS011;8008;50.024;8.172;2022-09-16T15:04:50;2.55;;;0.57;;
15814;SDS011;8008;50.024;8.172;2022-09-16T15:07:20;1.35;;;0.40;;
15814;SDS011;8008;50.024;8.172;2022-09-16T15:09:52;0.55;;;0.43;;
15814;SDS011;8008;50.024;8.172;2022-09-16T15:12:25;0.70;;;0.52;;
15814;SDS011;8008;50.024;8.172;2022-09-16T15:14:56;1.60;;;0.63;;
15814;SDS011;8008;50.024;8.172;2022-09-16T15:17:25;1.48;;;0.57;;
15814;SDS011;8008;50.024;8.172;2022-09-16T15:19:55;0.75;;;0.45;;
15814;SDS011;8008;50.024;8.172;2022-09-16T15:22:24;0.95;;;0.60;;
15814;SDS011;8008;50.024;8.172;2022-09-16T15:24:54;1.02;;;0.50;;
15814;SDS011;8008;50.024;8.172;2022-09-16T15:27:25;2.97;;;0.70;;
15814;SDS011;8008;50.024;8.172;2022-09-16T15:29:56;2.85;;;0.70;;
15814;SDS011;8008;50.024;8.172;2022-09-16T15:32:26;2.72;;;0.80;;
15814;SDS011;8008;50.024;8.172;2022-09-16T15:35:09;3.22;;;0.80;;
15814;SDS011;8008;50.024;8.172;2022-09-16T15:37:42;2.63;;;0.95;;
15814;SDS011;8008;50.024;8.172;2022-09-16T15:40:18;5.00;;;0.82;;
15814;SDS011;8008;50.024;8.172;2022-09-16T15:42:59;2.05;;;0.85;;
15814;SDS011;8008;50.024;8.172;2022-09-16T15:45:29;1.88;;;0.75;;
15814;SDS011;8008;50.024;8.172;2022-09-16T15:47:58;1.77;;;0.50;;
15814;SDS011;8008;50.024;8.172;2022-09-16T15:50:28;1.00;;;0.60;;
15814;SDS011;8008;50.024;8.172;2022-09-16T15:53:04;1.88;;;0.60;;
15814;SDS011;8008;50.024;8.172;2022-09-16T15:55:39;1.00;;;0.77;;
15814;SDS011;8008;50.024;8.172;2022-09-16T15:58:09;3.70;;;1.08;;
15814;SDS011;8008;50.024;8.172;2022-09-16T16:00:54;4.32;;;1.00;;
15814;SDS011;8008;50.024;8.172;2022-09-16T16:03:26;3.63;;;0.90;;
15814;SDS011;8008;50.024;8.172;2022-09-16T16:05:56;2.03;;;1.00;;
15814;SDS011;8008;50.024;8.172;2022-09-16T16:08:37;2.03;;;0.70;;
15814;SDS011;8008;50.024;8.172;2022-09-16T16:11:12;6.03;;;3.03;;
15814;SDS011;8008;50.024;8.172;2022-09-16T16:13:40;1.48;;;0.82;;
15814;SDS011;8008;50.024;8.172;2022-09-16T16:16:10;5.07;;;2.00;;
15814;SDS011;8008;50.024;8.172;2022-09-16T16:18:40;1.73;;;0.85;;
15814;SDS011;8008;50.024;8.172;2022-09-16T16:21:10;1.05;;;0.73;;
15814;SDS011;8008;50.024;8.172;2022-09-16T16:23:39;1.25;;;0.60;;
15814;SDS011;8008;50.024;8.172;2022-09-16T16:26:07;1.77;;;0.82;;
15814;SDS011;8008;50.024;8.172;2022-09-16T16:28:39;0.95;;;0.80;;
15814;SDS011;8008;50.024;8.172;2022-09-16T16:31:08;2.55;;;0.70;;
15814;SDS011;8008;50.024;8.172;2022-09-16T16:33:39;0.70;;;0.70;;
15814;SDS011;8008;50.024;8.172;2022-09-16T16:36:16;0.77;;;0.68;;
15814;SDS011;8008;50.024;8.172;2022-09-16T16:38:45;0.77;;;0.77;;
15814;SDS011;8008;50.024;8.172;2022-09-16T16:41:18;5.28;;;0.90;;
15814;SDS011;8008;50.024;8.172;2022-09-16T16:43:47;0.68;;;0.68;;
15814;SDS011;8008;50.024;8.172;2022-09-16T16:46:16;0.98;;;0.88;;
15814;SDS011;8008;50.024;8.172;2022-09-16T16:48:45;1.33;;;1.10;;
15814;SDS011;8008;50.024;8.172;2022-09-16T16:51:14;1.33;;;0.75;;
15814;SDS011;8008;50.024;8.172;2022-09-16T16:53:45;1.55;;;0.75;;
15814;SDS011;8008;50.024;8.172;2022-09-16T16:56:14;0.57;;;0.57;;
15814;SDS011;8008;50.024;8.172;2022-09-16T16:58:42;1.33;;;0.60;;
15814;SDS011;8008;50.024;8.172;2022-09-16T17:01:12;0.45;;;0.45;;
15814;SDS011;8008;50.024;8.172;2022-09-16T17:03:42;1.25;;;0.70;;
15814;SDS011;8008;50.024;8.172;2022-09-16T17:06:11;1.00;;;0.70;;
15814;SDS011;8008;50.024;8.172;2022-09-16T17:08:39;1.35;;;1.25;;
15814;SDS011;8008;50.024;8.172;2022-09-16T17:11:07;1.40;;;1.00;;
15814;SDS011;8008;50.024;8.172;2022-09-16T17:13:36;1.00;;;0.63;;
15814;SDS011;8008;50.024;8.172;2022-09-16T17:16:06;1.48;;;0.75;;
15814;SDS011;8008;50.024;8.172;2022-09-16T17:18:36;1.17;;;0.70;;
15814;SDS011;8008;50.024;8.172;2022-09-16T17:21:06;1.33;;;1.10;;
15814;SDS011;8008;50.024;8.172;2022-09-16T17:23:35;2.00;;;1.70;;
15814;SDS011;8008;50.024;8.172;2022-09-16T17:26:04;3.15;;;2.70;;
15814;SDS011;8008;50.024;8.172;2022-09-16T17:28:34;3.15;;;2.58;;
15814;SDS011;8008;50.024;8.172;2022-09-16T17:31:06;2.38;;;1.50;;
15814;SDS011;8008;50.024;8.172;2022-09-16T17:33:37;2.05;;;0.60;;
15814;SDS011;8008;50.024;8.172;2022-09-16T17:36:05;1.77;;;0.80;;
15814;SDS011;8008;50.024;8.172;2022-09-16T17:38:34;1.50;;;0.85;;
15814;SDS011;8008;50.024;8.172;2022-09-16T17:41:03;0.70;;;0.70;;
15814;SDS011;8008;50.024;8.172;2022-09-16T17:43:32;0.70;;;0.70;;
15814;SDS011;8008;50.024;8.172;2022-09-16T17:46:01;0.57;;;0.57;;
15814;SDS011;8008;50.024;8.172;2022-09-16T17:48:31;1.95;;;0.70;;
15814;SDS011;8008;50.024;8.172;2022-09-16T17:51:00;0.50;;;0.50;;
15814;SDS011;8008;50.024;8.172;2022-09-16T17:53:28;0.52;;;0.52;;
15814;SDS011;8008;50.024;8.172;2022-09-16T17:56:00;0.70;;;0.60;;
15814;SDS011;8008;50.024;8.172;2022-09-16T17:58:28;4.75;;;3.08;;
15814;SDS011;8008;50.024;8.172;2022-09-16T18:01:02;1.15;;;1.10;;
15814;SDS011;8008;50.024;8.172;2022-09-16T18:03:31;3.20;;;2.53;;
15814;SDS011;8008;50.024;8.172;2022-09-16T18:06:06;4.07;;;3.67;;
15814;SDS011;8008;50.024;8.172;2022-09-16T18:08:35;3.67;;;2.47;;
15814;SDS011;8008;50.024;8.172;2022-09-16T18:11:04;3.05;;;1.67;;
15814;SDS011;8008;50.024;8.172;2022-09-16T18:13:33;1.65;;;1.45;;
15814;SDS011;8008;50.024;8.172;2022-09-16T18:16:02;1.02;;;0.93;;
15814;SDS011;8008;50.024;8.172;2022-09-16T18:18:31;1.45;;;1.00;;
15814;SDS011;8008;50.024;8.172;2022-09-16T18:20:59;1.40;;;0.60;;
15814;SDS011;8008;50.024;8.172;2022-09-16T18:23:28;1.35;;;0.50;;
15814;SDS011;8008;50.024;8.172;2022-09-16T18:25:56;1.50;;;0.55;;
15814;SDS011;8008;50.024;8.172;2022-09-16T18:28:24;1.60;;;0.60;;
15814;SDS011;8008;50.024;8.172;2022-09-16T18:31:01;0.70;;;0.70;;
15814;SDS011;8008;50.024;8.172;2022-09-16T18:33:31;0.95;;;0.90;;
15814;SDS011;8008;50.024;8.172;2022-09-16T18:35:59;2.55;;;0.80;;
15814;SDS011;8008;50.024;8.172;2022-09-16T18:38:30;1.40;;;0.82;;
15814;SDS011;8008;50.024;8.172;2022-09-16T18:41:02;1.23;;;0.80;;
15814;SDS011;8008;50.024;8.172;2022-09-16T18:43:36;1.15;;;1.00;;
15814;SDS011;8008;50.024;8.172;2022-09-16T18:46:10;1.02;;;1.02;;
15814;SDS011;8008;50.024;8.172;2022-09-16T18:48:40;1.27;;;0.80;;
15814;SDS011;8008;50.024;8.172;2022-09-16T18:51:13;1.25;;;0.80;;